EFW527R EGKK-LPMA
Flight info
| Callsign | EFW527R |
|---|---|
| Flight time | 3h 22m |
| Altitude | 33000 |
| Route | IMVUR1Z IMVUR N63 SAM M195 LORKU DCT POZOF DCT LOTEE/N0458F350 DCT PINEK DCT VERAM DCT TELMU DCT PECKY DCT LIDRO LIDRO1P |
| Aircraft | A321/M-SDE3FGIJ1KRWXY/SB1 |
Departure
| Time | 2026-05-04 10:10 |
|---|---|
| Airport | London Gatwick Airport (EGKK) |
Arrival
| Time | 2026-05-04 13:32 |
|---|---|
| Airport | Cristiano Ronaldo International Airport (LPMA) |
| Time | Latitude | Longitude | Altitude | Speed | Heading |
|---|---|---|---|---|---|
| 2026-05-04 09:17 | 51.15778 | -0.16923 | 204 ft | 0 kts | 70° |
| 2026-05-04 09:51 | 51.15718 | -0.17049 | 214 ft | 0 kts | 347° |
| 2026-05-04 09:55 | 51.15721 | -0.17050 | 213 ft | 1 kts | 347° |
| 2026-05-04 09:55 | 51.15736 | -0.17055 | 204 ft | 3 kts | 347° |
| 2026-05-04 09:55 | 51.15759 | -0.17063 | 207 ft | 4 kts | 348° |
| 2026-05-04 09:55 | 51.15792 | -0.17077 | 204 ft | 6 kts | 336° |
| 2026-05-04 09:56 | 51.15811 | -0.17130 | 205 ft | 6 kts | 278° |
| 2026-05-04 09:56 | 51.15803 | -0.17197 | 207 ft | 7 kts | 258° |
| 2026-05-04 09:56 | 51.15793 | -0.17271 | 206 ft | 7 kts | 258° |
| 2026-05-04 09:56 | 51.15782 | -0.17353 | 204 ft | 8 kts | 258° |
| 2026-05-04 09:57 | 51.15770 | -0.17442 | 206 ft | 9 kts | 258° |
| 2026-05-04 09:57 | 51.15757 | -0.17535 | 209 ft | 9 kts | 257° |
| 2026-05-04 09:57 | 51.15743 | -0.17638 | 208 ft | 10 kts | 257° |
| 2026-05-04 09:57 | 51.15728 | -0.17747 | 205 ft | 10 kts | 258° |
| 2026-05-04 09:58 | 51.15712 | -0.17863 | 205 ft | 11 kts | 258° |
| 2026-05-04 09:58 | 51.15695 | -0.17986 | 204 ft | 12 kts | 257° |
| 2026-05-04 09:58 | 51.15678 | -0.18113 | 204 ft | 12 kts | 257° |
| 2026-05-04 10:00 | 51.15285 | -0.18240 | 204 ft | 12 kts | 167° |
| 2026-05-04 10:00 | 51.15219 | -0.18217 | 204 ft | 8 kts | 168° |
| 2026-05-04 10:02 | 51.15106 | -0.18903 | 206 ft | 12 kts | 257° |
| 2026-05-04 10:04 | 51.14948 | -0.19381 | 210 ft | 7 kts | 257° |
| 2026-05-04 10:04 | 51.14937 | -0.19464 | 214 ft | 9 kts | 257° |
| 2026-05-04 10:04 | 51.14923 | -0.19562 | 210 ft | 9 kts | 257° |
| 2026-05-04 10:04 | 51.14909 | -0.19664 | 211 ft | 9 kts | 257° |
| 2026-05-04 10:05 | 51.14895 | -0.19771 | 213 ft | 10 kts | 257° |
| 2026-05-04 10:05 | 51.14878 | -0.19893 | 211 ft | 12 kts | 257° |
| 2026-05-04 10:05 | 51.14858 | -0.20030 | 204 ft | 13 kts | 261° |
| 2026-05-04 10:05 | 51.14838 | -0.20181 | 210 ft | 15 kts | 257° |
| 2026-05-04 10:06 | 51.14815 | -0.20348 | 204 ft | 16 kts | 258° |
| 2026-05-04 10:06 | 51.14793 | -0.20512 | 208 ft | 15 kts | 258° |
| 2026-05-04 10:06 | 51.14770 | -0.20677 | 203 ft | 16 kts | 258° |
| 2026-05-04 10:08 | 51.14653 | -0.20966 | 203 ft | 4 kts | 167° |
| 2026-05-04 10:08 | 51.14622 | -0.20951 | 211 ft | 5 kts | 159° |
| 2026-05-04 10:08 | 51.14593 | -0.20917 | 214 ft | 6 kts | 135° |
| 2026-05-04 10:08 | 51.14573 | -0.20866 | 207 ft | 5 kts | 109° |
| 2026-05-04 10:09 | 51.14571 | -0.20808 | 205 ft | 5 kts | 84° |
| 2026-05-04 10:09 | 51.14573 | -0.20793 | 205 ft | 0 kts | 80° |
| 2026-05-04 10:09 | 51.14573 | -0.20792 | 205 ft | 0 kts | 80° |
| 2026-05-04 10:09 | 51.14575 | -0.20775 | 205 ft | 9 kts | 79° |
| 2026-05-04 10:10 | 51.14645 | -0.20264 | 206 ft | 83 kts | 77° |
| 2026-05-04 10:10 | 51.14814 | -0.19034 | 215 ft | 143 kts | 77° |
| 2026-05-04 10:10 | 51.15056 | -0.17270 | 485 ft | 166 kts | 76° |
| 2026-05-04 10:10 | 51.15305 | -0.15470 | 1230 ft | 169 kts | 76° |
| 2026-05-04 10:11 | 51.15591 | -0.13540 | 1587 ft | 190 kts | 76° |
| 2026-05-04 10:11 | 51.15883 | -0.11483 | 1765 ft | 209 kts | 77° |
| 2026-05-04 10:11 | 51.16218 | -0.09056 | 1971 ft | 230 kts | 77° |
| 2026-05-04 10:11 | 51.16729 | -0.06657 | 2652 ft | 228 kts | 57° |
| 2026-05-04 10:12 | 51.17917 | -0.04989 | 2885 ft | 230 kts | 20° |
| 2026-05-04 10:12 | 51.19487 | -0.04865 | 2941 ft | 229 kts | 350° |
| 2026-05-04 10:12 | 51.21043 | -0.05465 | 3014 ft | 231 kts | 337° |
| 2026-05-04 10:12 | 51.22252 | -0.07054 | 2995 ft | 233 kts | 300° |
| 2026-05-04 10:13 | 51.22759 | -0.09586 | 3009 ft | 256 kts | 273° |
| 2026-05-04 10:13 | 51.22601 | -0.12476 | 3104 ft | 265 kts | 261° |
| 2026-05-04 10:13 | 51.22284 | -0.15373 | 2914 ft | 263 kts | 259° |
| 2026-05-04 10:13 | 51.22061 | -0.17269 | 2947 ft | 263 kts | 259° |
| 2026-05-04 10:14 | 51.21695 | -0.20147 | 2999 ft | 265 kts | 258° |
| 2026-05-04 10:14 | 51.21201 | -0.23968 | 3002 ft | 266 kts | 258° |
| 2026-05-04 10:16 | 51.18781 | -0.43365 | 4316 ft | 270 kts | 258° |
| 2026-05-04 10:16 | 51.18392 | -0.46298 | 5051 ft | 271 kts | 258° |
| 2026-05-04 10:16 | 51.18001 | -0.49249 | 5756 ft | 272 kts | 257° |
| 2026-05-04 10:16 | 51.17608 | -0.52213 | 6462 ft | 273 kts | 256° |
| 2026-05-04 10:17 | 51.16993 | -0.55076 | 7092 ft | 275 kts | 246° |
| 2026-05-04 10:17 | 51.16239 | -0.57883 | 7750 ft | 276 kts | 246° |
| 2026-05-04 10:19 | 51.10740 | -0.78467 | 10597 ft | 340 kts | 246° |
| 2026-05-04 10:19 | 51.09794 | -0.81983 | 10948 ft | 349 kts | 246° |
| 2026-05-04 10:19 | 51.08835 | -0.85554 | 11463 ft | 352 kts | 246° |
| 2026-05-04 10:19 | 51.07866 | -0.89154 | 12009 ft | 355 kts | 246° |
| 2026-05-04 10:20 | 51.06897 | -0.92744 | 12551 ft | 358 kts | 245° |
| 2026-05-04 10:20 | 51.05909 | -0.96396 | 13090 ft | 361 kts | 245° |
| 2026-05-04 10:20 | 51.04911 | -1.00081 | 13609 ft | 364 kts | 245° |
| 2026-05-04 10:20 | 51.03919 | -1.03745 | 14075 ft | 367 kts | 245° |
| 2026-05-04 10:21 | 51.02894 | -1.07528 | 14556 ft | 369 kts | 245° |
| 2026-05-04 10:21 | 51.01874 | -1.11282 | 15028 ft | 372 kts | 245° |
| 2026-05-04 10:21 | 51.00861 | -1.15012 | 15502 ft | 374 kts | 245° |
| 2026-05-04 10:21 | 50.99825 | -1.18821 | 15983 ft | 376 kts | 245° |
| 2026-05-04 10:22 | 50.97724 | -1.26489 | 16917 ft | 381 kts | 245° |
| 2026-05-04 10:22 | 50.96607 | -1.30304 | 17353 ft | 382 kts | 239° |
| 2026-05-04 10:22 | 50.95109 | -1.33790 | 17784 ft | 383 kts | 229° |
| 2026-05-04 10:23 | 50.93217 | -1.36770 | 18210 ft | 384 kts | 218° |
| 2026-05-04 10:23 | 50.91022 | -1.39213 | 18592 ft | 386 kts | 212° |
| 2026-05-04 10:25 | 50.75080 | -1.55766 | 21274 ft | 398 kts | 212° |
| 2026-05-04 10:25 | 50.72757 | -1.58169 | 21652 ft | 400 kts | 212° |
| 2026-05-04 10:25 | 50.70413 | -1.60584 | 22020 ft | 402 kts | 212° |
| 2026-05-04 10:25 | 50.68063 | -1.63002 | 22391 ft | 404 kts | 212° |
| 2026-05-04 10:26 | 50.65696 | -1.65435 | 22744 ft | 406 kts | 212° |
| 2026-05-04 10:26 | 50.63323 | -1.67868 | 23096 ft | 408 kts | 212° |
| 2026-05-04 10:26 | 50.60932 | -1.70315 | 23379 ft | 411 kts | 212° |
| 2026-05-04 10:26 | 50.58524 | -1.72772 | 23680 ft | 414 kts | 212° |
| 2026-05-04 10:27 | 50.56098 | -1.75248 | 23973 ft | 416 kts | 212° |
| 2026-05-04 10:27 | 50.53671 | -1.77732 | 24294 ft | 417 kts | 212° |
| 2026-05-04 10:27 | 50.51273 | -1.80191 | 24610 ft | 417 kts | 212° |
| 2026-05-04 10:27 | 50.48835 | -1.82690 | 24939 ft | 418 kts | 212° |
| 2026-05-04 10:28 | 50.46398 | -1.85186 | 25283 ft | 418 kts | 212° |
| 2026-05-04 10:28 | 50.43953 | -1.87682 | 25615 ft | 419 kts | 212° |
| 2026-05-04 10:28 | 50.41502 | -1.90175 | 25929 ft | 420 kts | 212° |
| 2026-05-04 10:28 | 50.39042 | -1.92671 | 26246 ft | 420 kts | 211° |
| 2026-05-04 10:29 | 50.36583 | -1.95162 | 26564 ft | 421 kts | 211° |
| 2026-05-04 10:29 | 50.34121 | -1.97650 | 26866 ft | 422 kts | 211° |
| 2026-05-04 10:29 | 50.31650 | -2.00146 | 27163 ft | 423 kts | 211° |
| 2026-05-04 10:29 | 50.29206 | -2.02613 | 27444 ft | 424 kts | 211° |
| 2026-05-04 10:30 | 50.26720 | -2.05118 | 27718 ft | 425 kts | 211° |
| 2026-05-04 10:30 | 50.24235 | -2.07620 | 27979 ft | 425 kts | 211° |
| 2026-05-04 10:30 | 50.21735 | -2.10108 | 28239 ft | 426 kts | 211° |
| 2026-05-04 10:30 | 50.19223 | -2.12571 | 28470 ft | 427 kts | 210° |
| 2026-05-04 10:31 | 50.16696 | -2.15019 | 28699 ft | 428 kts | 210° |
| 2026-05-04 10:31 | 50.14164 | -2.17458 | 28988 ft | 427 kts | 210° |
| 2026-05-04 10:32 | 49.99227 | -2.31892 | 30640 ft | 422 kts | 210° |
| 2026-05-04 10:33 | 49.96729 | -2.34300 | 30829 ft | 423 kts | 210° |
| 2026-05-04 10:33 | 49.94213 | -2.36698 | 31002 ft | 423 kts | 207° |
| 2026-05-04 10:33 | 49.91573 | -2.38693 | 31206 ft | 422 kts | 203° |
| 2026-05-04 10:33 | 49.88894 | -2.40563 | 31390 ft | 422 kts | 203° |
| 2026-05-04 10:34 | 49.86214 | -2.42432 | 31583 ft | 422 kts | 203° |
| 2026-05-04 10:34 | 49.83534 | -2.44299 | 31756 ft | 423 kts | 203° |
| 2026-05-04 10:34 | 49.80851 | -2.46165 | 31943 ft | 423 kts | 203° |
| 2026-05-04 10:34 | 49.78167 | -2.48035 | 32121 ft | 423 kts | 203° |
| 2026-05-04 10:35 | 49.75478 | -2.49913 | 32307 ft | 424 kts | 203° |
| 2026-05-04 10:35 | 49.72784 | -2.51795 | 32485 ft | 424 kts | 203° |
| 2026-05-04 10:35 | 49.70128 | -2.53644 | 32670 ft | 424 kts | 203° |
| 2026-05-04 10:35 | 49.67436 | -2.55512 | 32857 ft | 424 kts | 203° |
| 2026-05-04 10:36 | 49.64745 | -2.57374 | 33011 ft | 423 kts | 203° |
| 2026-05-04 10:36 | 49.62062 | -2.59229 | 33027 ft | 422 kts | 203° |
| 2026-05-04 10:36 | 49.56713 | -2.62923 | 33029 ft | 421 kts | 203° |
| 2026-05-04 10:37 | 49.51367 | -2.66600 | 33029 ft | 421 kts | 203° |
| 2026-05-04 10:37 | 49.46010 | -2.70271 | 33037 ft | 422 kts | 202° |
| 2026-05-04 10:39 | 49.27185 | -2.83139 | 33026 ft | 424 kts | 202° |
| 2026-05-04 10:40 | 49.21788 | -2.86805 | 33020 ft | 424 kts | 202° |
| 2026-05-04 10:40 | 49.16391 | -2.90472 | 33026 ft | 424 kts | 202° |
| 2026-05-04 10:41 | 49.11020 | -2.94112 | 33030 ft | 424 kts | 202° |
| 2026-05-04 10:41 | 49.05619 | -2.97755 | 33034 ft | 424 kts | 202° |
| 2026-05-04 10:42 | 49.00214 | -3.01389 | 33034 ft | 424 kts | 202° |
| 2026-05-04 10:42 | 48.94809 | -3.05013 | 33032 ft | 424 kts | 202° |
| 2026-05-04 10:43 | 48.89403 | -3.08637 | 33057 ft | 424 kts | 202° |
| 2026-05-04 10:45 | 48.67766 | -3.23044 | 33024 ft | 425 kts | 202° |
| 2026-05-04 10:45 | 48.62376 | -3.26619 | 33027 ft | 425 kts | 202° |
| 2026-05-04 10:46 | 48.56953 | -3.30202 | 33019 ft | 425 kts | 202° |
| 2026-05-04 10:46 | 48.51523 | -3.33782 | 33001 ft | 426 kts | 202° |
| 2026-05-04 10:47 | 48.46080 | -3.37359 | 33006 ft | 426 kts | 202° |
| 2026-05-04 10:47 | 48.40680 | -3.40900 | 33007 ft | 426 kts | 202° |
| 2026-05-04 10:49 | 48.18860 | -3.55141 | 32999 ft | 428 kts | 202° |
| 2026-05-04 10:50 | 48.13428 | -3.58662 | 33002 ft | 428 kts | 202° |
| 2026-05-04 10:52 | 47.91531 | -3.72775 | 33003 ft | 428 kts | 202° |
| 2026-05-04 10:52 | 47.86091 | -3.76265 | 33007 ft | 428 kts | 202° |
| 2026-05-04 10:54 | 47.64167 | -3.90217 | 33017 ft | 429 kts | 202° |
| 2026-05-04 10:56 | 47.42177 | -4.04113 | 33016 ft | 429 kts | 202° |
| 2026-05-04 10:57 | 47.36679 | -4.07558 | 33022 ft | 429 kts | 202° |
| 2026-05-04 10:57 | 47.31221 | -4.10978 | 33017 ft | 429 kts | 202° |
| 2026-05-04 10:58 | 47.25724 | -4.14416 | 33032 ft | 429 kts | 202° |
| 2026-05-04 10:58 | 47.20228 | -4.17844 | 33028 ft | 429 kts | 202° |
| 2026-05-04 10:59 | 47.14720 | -4.21273 | 33022 ft | 430 kts | 202° |
| 2026-05-04 10:59 | 47.09206 | -4.24698 | 33016 ft | 430 kts | 202° |
| 2026-05-04 11:00 | 47.03730 | -4.28134 | 33024 ft | 430 kts | 204° |
| 2026-05-04 11:02 | 46.82105 | -4.43027 | 33029 ft | 429 kts | 204° |
| 2026-05-04 11:05 | 46.42145 | -4.69918 | 34319 ft | 437 kts | 205° |
| 2026-05-04 11:06 | 46.39417 | -4.71735 | 34433 ft | 437 kts | 205° |
| 2026-05-04 11:06 | 46.36653 | -4.73574 | 34550 ft | 437 kts | 205° |
| 2026-05-04 11:06 | 46.33889 | -4.75415 | 34669 ft | 437 kts | 205° |
| 2026-05-04 11:06 | 46.31126 | -4.77257 | 34781 ft | 437 kts | 205° |
| 2026-05-04 11:08 | 46.11605 | -4.90208 | 35016 ft | 443 kts | 205° |
| 2026-05-04 11:10 | 45.91980 | -5.03113 | 35026 ft | 444 kts | 204° |
| 2026-05-04 11:12 | 45.69443 | -5.17802 | 35042 ft | 444 kts | 204° |
| 2026-05-04 11:12 | 45.63841 | -5.21425 | 35046 ft | 444 kts | 204° |
| 2026-05-04 11:13 | 45.58202 | -5.25066 | 35045 ft | 444 kts | 204° |
| 2026-05-04 11:13 | 45.52568 | -5.28701 | 35046 ft | 444 kts | 204° |
| 2026-05-04 11:14 | 45.46941 | -5.32324 | 35048 ft | 444 kts | 204° |
| 2026-05-04 11:16 | 45.24438 | -5.46744 | 35050 ft | 444 kts | 205° |
| 2026-05-04 11:16 | 45.18793 | -5.50342 | 35048 ft | 445 kts | 205° |
| 2026-05-04 11:17 | 45.13139 | -5.53939 | 35048 ft | 445 kts | 205° |
| 2026-05-04 11:19 | 44.90513 | -5.68230 | 35058 ft | 445 kts | 205° |
| 2026-05-04 11:19 | 44.84851 | -5.71793 | 35060 ft | 446 kts | 205° |
| 2026-05-04 11:20 | 44.79175 | -5.75359 | 35057 ft | 446 kts | 205° |
| 2026-05-04 11:20 | 44.73528 | -5.78885 | 35053 ft | 446 kts | 205° |
| 2026-05-04 11:22 | 44.55183 | -5.94823 | 35060 ft | 445 kts | 217° |
| 2026-05-04 11:22 | 44.52687 | -5.97403 | 35061 ft | 445 kts | 217° |
| 2026-05-04 11:23 | 44.47703 | -6.02551 | 35057 ft | 445 kts | 217° |
| 2026-05-04 11:25 | 44.30218 | -6.20566 | 35066 ft | 446 kts | 217° |
| 2026-05-04 11:25 | 44.25215 | -6.25704 | 35068 ft | 446 kts | 217° |
| 2026-05-04 11:27 | 44.02688 | -6.48670 | 35067 ft | 446 kts | 217° |
| 2026-05-04 11:28 | 43.97669 | -6.53744 | 35067 ft | 446 kts | 217° |
| 2026-05-04 11:28 | 43.92643 | -6.58834 | 35074 ft | 447 kts | 217° |
| 2026-05-04 11:29 | 43.87621 | -6.63920 | 35074 ft | 447 kts | 217° |
| 2026-05-04 11:29 | 43.82616 | -6.68956 | 35055 ft | 447 kts | 217° |
| 2026-05-04 11:33 | 43.47373 | -7.04137 | 35075 ft | 447 kts | 218° |
| 2026-05-04 11:33 | 43.42320 | -7.09145 | 35075 ft | 447 kts | 218° |
| 2026-05-04 11:34 | 43.37298 | -7.14109 | 35068 ft | 447 kts | 218° |
| 2026-05-04 11:34 | 43.32242 | -7.19087 | 35079 ft | 447 kts | 218° |
| 2026-05-04 11:35 | 43.27191 | -7.24061 | 35084 ft | 447 kts | 218° |
| 2026-05-04 11:35 | 43.22129 | -7.29026 | 35081 ft | 447 kts | 218° |
| 2026-05-04 11:36 | 43.17087 | -7.33952 | 35068 ft | 447 kts | 218° |
| 2026-05-04 11:36 | 43.12029 | -7.38900 | 35076 ft | 447 kts | 218° |
| 2026-05-04 11:37 | 43.06972 | -7.43851 | 35080 ft | 447 kts | 218° |
| 2026-05-04 11:37 | 43.01905 | -7.48790 | 35081 ft | 447 kts | 218° |
| 2026-05-04 11:38 | 42.96837 | -7.53715 | 35067 ft | 447 kts | 218° |
| 2026-05-04 11:38 | 42.91799 | -7.58602 | 35077 ft | 446 kts | 218° |
| 2026-05-04 11:39 | 42.86735 | -7.63505 | 35084 ft | 446 kts | 218° |
| 2026-05-04 11:41 | 42.68983 | -7.80598 | 35080 ft | 446 kts | 219° |
| 2026-05-04 11:41 | 42.63907 | -7.85463 | 35083 ft | 446 kts | 219° |
| 2026-05-04 11:42 | 42.58869 | -7.90284 | 35086 ft | 445 kts | 219° |
| 2026-05-04 11:42 | 42.53800 | -7.95138 | 35087 ft | 445 kts | 219° |
| 2026-05-04 11:43 | 42.48784 | -7.99910 | 35059 ft | 435 kts | 218° |
| 2026-05-04 11:43 | 42.43838 | -8.04604 | 35066 ft | 433 kts | 219° |
| 2026-05-04 11:44 | 42.38903 | -8.09283 | 35066 ft | 433 kts | 219° |
| 2026-05-04 11:44 | 42.34005 | -8.13930 | 35064 ft | 433 kts | 219° |
| 2026-05-04 11:45 | 42.29070 | -8.18605 | 35061 ft | 433 kts | 219° |
| 2026-05-04 11:45 | 42.24132 | -8.23271 | 35076 ft | 432 kts | 219° |
| 2026-05-04 11:46 | 42.19196 | -8.27921 | 35083 ft | 433 kts | 219° |
| 2026-05-04 11:46 | 42.14249 | -8.32568 | 35085 ft | 433 kts | 219° |
| 2026-05-04 11:47 | 42.09303 | -8.37204 | 35067 ft | 433 kts | 219° |
| 2026-05-04 11:47 | 42.04403 | -8.41799 | 35085 ft | 432 kts | 219° |
| 2026-05-04 11:48 | 41.99466 | -8.46413 | 35098 ft | 432 kts | 219° |
| 2026-05-04 11:48 | 41.95335 | -8.50262 | 35099 ft | 431 kts | 219° |
| 2026-05-04 11:49 | 41.90400 | -8.54859 | 35101 ft | 431 kts | 219° |
| 2026-05-04 11:49 | 41.85498 | -8.59419 | 35085 ft | 431 kts | 219° |
| 2026-05-04 11:50 | 41.80734 | -8.64251 | 35089 ft | 428 kts | 224° |
| 2026-05-04 11:50 | 41.76203 | -8.69410 | 35099 ft | 427 kts | 225° |
| 2026-05-04 11:51 | 41.71675 | -8.74564 | 35098 ft | 427 kts | 224° |
| 2026-05-04 11:51 | 41.67115 | -8.79585 | 35112 ft | 427 kts | 224° |
| 2026-05-04 11:52 | 41.62489 | -8.84600 | 35098 ft | 427 kts | 224° |
| 2026-05-04 11:52 | 41.57878 | -8.89602 | 35113 ft | 427 kts | 224° |
| 2026-05-04 11:53 | 41.53276 | -8.94596 | 35125 ft | 426 kts | 224° |
| 2026-05-04 11:53 | 41.48672 | -8.99600 | 35130 ft | 426 kts | 224° |
| 2026-05-04 11:55 | 41.30289 | -9.19472 | 35126 ft | 425 kts | 224° |
| 2026-05-04 11:56 | 41.25683 | -9.24422 | 35132 ft | 425 kts | 224° |
| 2026-05-04 11:56 | 41.21101 | -9.29339 | 35135 ft | 425 kts | 224° |
| 2026-05-04 11:57 | 41.16490 | -9.34280 | 35119 ft | 425 kts | 224° |
| 2026-05-04 11:57 | 41.11885 | -9.39215 | 35138 ft | 425 kts | 224° |
| 2026-05-04 11:58 | 41.07282 | -9.44135 | 35137 ft | 425 kts | 224° |
| 2026-05-04 11:58 | 41.02674 | -9.49050 | 35129 ft | 425 kts | 224° |
| 2026-05-04 11:59 | 40.98094 | -9.53928 | 35132 ft | 425 kts | 224° |
| 2026-05-04 11:59 | 40.93472 | -9.58825 | 35106 ft | 426 kts | 224° |
| 2026-05-04 12:00 | 40.88847 | -9.63718 | 35120 ft | 426 kts | 224° |
| 2026-05-04 12:00 | 40.84212 | -9.68617 | 35131 ft | 426 kts | 224° |
| 2026-05-04 12:01 | 40.79578 | -9.73507 | 35138 ft | 426 kts | 224° |
| 2026-05-04 12:02 | 40.63367 | -9.90558 | 35129 ft | 427 kts | 224° |
| 2026-05-04 12:03 | 40.58705 | -9.95438 | 35136 ft | 428 kts | 224° |
| 2026-05-04 12:03 | 40.54059 | -10.00283 | 35147 ft | 428 kts | 224° |
| 2026-05-04 12:04 | 40.49388 | -10.05159 | 35151 ft | 428 kts | 224° |
| 2026-05-04 12:04 | 40.44721 | -10.10025 | 35128 ft | 428 kts | 224° |
| 2026-05-04 12:05 | 40.40040 | -10.14886 | 35138 ft | 428 kts | 224° |
| 2026-05-04 12:05 | 40.35364 | -10.19726 | 35147 ft | 428 kts | 224° |
| 2026-05-04 12:06 | 40.30681 | -10.24575 | 35142 ft | 429 kts | 224° |
| 2026-05-04 12:06 | 40.26028 | -10.29397 | 35150 ft | 429 kts | 224° |
| 2026-05-04 12:07 | 40.21340 | -10.34241 | 35150 ft | 429 kts | 224° |
| 2026-05-04 12:07 | 40.16648 | -10.39068 | 35163 ft | 429 kts | 224° |
| 2026-05-04 12:08 | 40.11943 | -10.43906 | 35169 ft | 429 kts | 224° |
| 2026-05-04 12:08 | 40.07272 | -10.48700 | 35160 ft | 429 kts | 224° |
| 2026-05-04 12:09 | 40.02562 | -10.53525 | 35161 ft | 429 kts | 224° |
| 2026-05-04 12:09 | 39.97858 | -10.58336 | 35119 ft | 429 kts | 224° |
| 2026-05-04 12:10 | 39.93149 | -10.63145 | 35145 ft | 430 kts | 224° |
| 2026-05-04 12:10 | 39.88434 | -10.67952 | 35156 ft | 430 kts | 224° |
| 2026-05-04 12:11 | 39.83717 | -10.72746 | 35167 ft | 430 kts | 224° |
| 2026-05-04 12:11 | 39.79027 | -10.77503 | 35170 ft | 430 kts | 224° |
| 2026-05-04 12:12 | 39.74316 | -10.82287 | 35141 ft | 430 kts | 224° |
| 2026-05-04 12:12 | 39.69586 | -10.87064 | 35163 ft | 430 kts | 224° |
| 2026-05-04 12:14 | 39.50698 | -11.06101 | 35167 ft | 431 kts | 224° |
| 2026-05-04 12:15 | 39.45947 | -11.10855 | 35162 ft | 431 kts | 224° |
| 2026-05-04 12:15 | 39.41202 | -11.15599 | 35171 ft | 431 kts | 224° |
| 2026-05-04 12:16 | 39.36463 | -11.20345 | 35182 ft | 431 kts | 224° |
| 2026-05-04 12:16 | 39.31718 | -11.25078 | 35183 ft | 431 kts | 224° |
| 2026-05-04 12:17 | 39.26991 | -11.29782 | 35185 ft | 431 kts | 224° |
| 2026-05-04 12:17 | 39.22237 | -11.34511 | 35142 ft | 431 kts | 224° |
| 2026-05-04 12:18 | 39.17484 | -11.39234 | 35152 ft | 431 kts | 224° |
| 2026-05-04 12:18 | 39.12727 | -11.43960 | 35165 ft | 432 kts | 224° |
| 2026-05-04 12:19 | 39.07960 | -11.48674 | 35178 ft | 432 kts | 224° |
| 2026-05-04 12:19 | 39.03179 | -11.53375 | 35177 ft | 432 kts | 224° |
| 2026-05-04 12:20 | 38.98434 | -11.58049 | 35155 ft | 432 kts | 224° |
| 2026-05-04 12:20 | 38.93665 | -11.62754 | 35171 ft | 432 kts | 224° |
| 2026-05-04 12:21 | 38.88882 | -11.67448 | 35184 ft | 432 kts | 224° |
| 2026-05-04 12:21 | 38.84096 | -11.72130 | 35187 ft | 432 kts | 224° |
| 2026-05-04 12:22 | 38.79310 | -11.76806 | 35192 ft | 432 kts | 224° |
| 2026-05-04 12:22 | 38.74522 | -11.81477 | 35166 ft | 432 kts | 224° |
| 2026-05-04 12:23 | 38.69739 | -11.86149 | 35182 ft | 432 kts | 224° |
| 2026-05-04 12:23 | 38.64954 | -11.90817 | 35189 ft | 432 kts | 224° |
| 2026-05-04 12:24 | 38.60202 | -11.95441 | 35194 ft | 432 kts | 224° |
| 2026-05-04 12:24 | 38.55415 | -12.00081 | 35195 ft | 432 kts | 223° |
| 2026-05-04 12:25 | 38.50619 | -12.04720 | 35181 ft | 432 kts | 224° |
| 2026-05-04 12:25 | 38.45826 | -12.09347 | 35164 ft | 432 kts | 224° |
| 2026-05-04 12:26 | 38.41033 | -12.13969 | 35177 ft | 432 kts | 224° |
| 2026-05-04 12:26 | 38.36236 | -12.18593 | 35194 ft | 432 kts | 224° |
| 2026-05-04 12:27 | 38.31440 | -12.23207 | 35203 ft | 432 kts | 224° |
| 2026-05-04 12:27 | 38.26639 | -12.27820 | 35200 ft | 432 kts | 224° |
| 2026-05-04 12:28 | 38.21871 | -12.32394 | 35179 ft | 432 kts | 223° |
| 2026-05-04 12:28 | 38.17068 | -12.36996 | 35198 ft | 432 kts | 223° |
| 2026-05-04 12:29 | 38.12260 | -12.41586 | 35187 ft | 432 kts | 223° |
| 2026-05-04 12:29 | 38.07463 | -12.46169 | 35197 ft | 432 kts | 223° |
| 2026-05-04 12:30 | 38.02655 | -12.50752 | 35204 ft | 432 kts | 223° |
| 2026-05-04 12:30 | 37.97881 | -12.55290 | 35192 ft | 432 kts | 223° |
| 2026-05-04 12:31 | 37.93070 | -12.59850 | 35193 ft | 431 kts | 223° |
| 2026-05-04 12:31 | 37.88260 | -12.64398 | 35210 ft | 431 kts | 223° |
| 2026-05-04 12:32 | 37.81051 | -12.71212 | 35211 ft | 431 kts | 223° |
| 2026-05-04 12:33 | 37.76247 | -12.75742 | 35207 ft | 431 kts | 223° |
| 2026-05-04 12:33 | 37.71433 | -12.80271 | 35211 ft | 431 kts | 223° |
| 2026-05-04 12:34 | 37.67434 | -12.84038 | 35211 ft | 431 kts | 223° |
| 2026-05-04 12:34 | 37.62629 | -12.88567 | 35213 ft | 431 kts | 223° |
| 2026-05-04 12:35 | 37.57844 | -12.93049 | 35213 ft | 431 kts | 223° |
| 2026-05-04 12:35 | 37.53024 | -12.97546 | 35215 ft | 431 kts | 223° |
| 2026-05-04 12:36 | 37.48215 | -13.02049 | 35213 ft | 430 kts | 223° |
| 2026-05-04 12:36 | 37.43405 | -13.06541 | 35199 ft | 430 kts | 222° |
| 2026-05-04 12:37 | 37.38586 | -13.11015 | 35211 ft | 430 kts | 222° |
| 2026-05-04 12:37 | 37.33773 | -13.15484 | 35204 ft | 429 kts | 222° |
| 2026-05-04 12:38 | 37.29003 | -13.19929 | 35210 ft | 429 kts | 222° |
| 2026-05-04 12:38 | 37.24194 | -13.24384 | 35218 ft | 429 kts | 222° |
| 2026-05-04 12:39 | 37.19393 | -13.28824 | 35194 ft | 429 kts | 221° |
| 2026-05-04 12:39 | 37.14588 | -13.33264 | 35209 ft | 428 kts | 221° |
| 2026-05-04 12:40 | 37.09793 | -13.37697 | 35219 ft | 428 kts | 221° |
| 2026-05-04 12:40 | 37.04989 | -13.42116 | 35222 ft | 428 kts | 221° |
| 2026-05-04 12:41 | 37.00186 | -13.46528 | 35223 ft | 428 kts | 221° |
| 2026-05-04 12:41 | 36.95388 | -13.50928 | 35210 ft | 428 kts | 221° |
| 2026-05-04 12:42 | 36.90622 | -13.55301 | 35206 ft | 427 kts | 221° |
| 2026-05-04 12:42 | 36.85826 | -13.59696 | 35219 ft | 427 kts | 221° |
| 2026-05-04 12:43 | 36.81035 | -13.64063 | 35225 ft | 426 kts | 221° |
| 2026-05-04 12:43 | 36.76220 | -13.68397 | 35223 ft | 427 kts | 219° |
| 2026-05-04 12:44 | 36.71188 | -13.72387 | 35225 ft | 429 kts | 216° |
| 2026-05-04 12:44 | 36.66040 | -13.76175 | 35200 ft | 429 kts | 216° |
| 2026-05-04 12:45 | 36.60908 | -13.79985 | 35215 ft | 429 kts | 216° |
| 2026-05-04 12:45 | 36.55823 | -13.83861 | 35220 ft | 428 kts | 217° |
| 2026-05-04 12:46 | 36.50779 | -13.87733 | 35217 ft | 428 kts | 217° |
| 2026-05-04 12:46 | 36.45699 | -13.91609 | 35223 ft | 428 kts | 217° |
| 2026-05-04 12:47 | 36.40612 | -13.95458 | 35199 ft | 427 kts | 217° |
| 2026-05-04 12:47 | 36.35572 | -13.99259 | 35230 ft | 425 kts | 218° |
| 2026-05-04 12:48 | 36.30507 | -14.03073 | 35226 ft | 424 kts | 218° |
| 2026-05-04 12:48 | 36.25472 | -14.06899 | 35228 ft | 423 kts | 218° |
| 2026-05-04 12:49 | 36.20450 | -14.10707 | 35236 ft | 423 kts | 218° |
| 2026-05-04 12:49 | 36.15421 | -14.14490 | 35226 ft | 423 kts | 218° |
| 2026-05-04 12:50 | 36.10432 | -14.18235 | 35211 ft | 422 kts | 218° |
| 2026-05-04 12:50 | 36.05420 | -14.21998 | 35217 ft | 421 kts | 218° |
| 2026-05-04 12:51 | 36.00415 | -14.25752 | 35221 ft | 420 kts | 218° |
| 2026-05-04 12:51 | 35.95408 | -14.29499 | 35222 ft | 420 kts | 218° |
| 2026-05-04 12:52 | 35.90440 | -14.33212 | 35225 ft | 420 kts | 218° |
| 2026-05-04 12:52 | 35.85445 | -14.36939 | 35207 ft | 419 kts | 217° |
| 2026-05-04 12:53 | 35.80450 | -14.40663 | 35214 ft | 419 kts | 217° |
| 2026-05-04 12:53 | 35.75469 | -14.44384 | 35219 ft | 419 kts | 217° |
| 2026-05-04 12:54 | 35.70474 | -14.48087 | 35225 ft | 418 kts | 217° |
| 2026-05-04 12:54 | 35.65482 | -14.51786 | 35221 ft | 418 kts | 217° |
| 2026-05-04 12:55 | 35.60529 | -14.55453 | 35197 ft | 418 kts | 217° |
| 2026-05-04 12:55 | 35.55541 | -14.59140 | 35203 ft | 418 kts | 217° |
| 2026-05-04 12:56 | 35.50556 | -14.62817 | 35216 ft | 418 kts | 217° |
| 2026-05-04 12:56 | 35.45562 | -14.66499 | 35218 ft | 418 kts | 217° |
| 2026-05-04 12:57 | 35.40577 | -14.70174 | 35218 ft | 418 kts | 217° |
| 2026-05-04 12:57 | 35.35585 | -14.73842 | 35219 ft | 418 kts | 217° |
| 2026-05-04 12:58 | 35.30624 | -14.77483 | 35194 ft | 418 kts | 217° |
| 2026-05-04 12:58 | 35.25635 | -14.81143 | 35204 ft | 418 kts | 217° |
| 2026-05-04 12:59 | 35.20641 | -14.84795 | 35206 ft | 418 kts | 217° |
| 2026-05-04 12:59 | 35.15655 | -14.88443 | 35212 ft | 418 kts | 217° |
| 2026-05-04 13:00 | 35.10661 | -14.92087 | 35213 ft | 418 kts | 217° |
| 2026-05-04 13:00 | 35.05701 | -14.95701 | 35213 ft | 418 kts | 217° |
| 2026-05-04 13:01 | 35.00705 | -14.99337 | 35207 ft | 418 kts | 217° |
| 2026-05-04 13:01 | 34.95707 | -15.02977 | 35213 ft | 418 kts | 217° |
| 2026-05-04 13:02 | 34.90701 | -15.06606 | 35206 ft | 418 kts | 217° |
| 2026-05-04 13:02 | 34.85701 | -15.10232 | 35211 ft | 418 kts | 217° |
| 2026-05-04 13:03 | 34.80692 | -15.13856 | 35210 ft | 418 kts | 217° |
| 2026-05-04 13:03 | 34.75720 | -15.17446 | 35197 ft | 418 kts | 216° |
| 2026-05-04 13:04 | 34.70709 | -15.21055 | 35209 ft | 418 kts | 216° |
| 2026-05-04 13:04 | 34.65708 | -15.24664 | 35205 ft | 418 kts | 216° |
| 2026-05-04 13:05 | 34.60706 | -15.28259 | 35207 ft | 418 kts | 216° |
| 2026-05-04 13:05 | 34.55732 | -15.31820 | 35204 ft | 417 kts | 216° |
| 2026-05-04 13:06 | 34.50727 | -15.35422 | 35185 ft | 417 kts | 216° |
| 2026-05-04 13:06 | 34.45726 | -15.39004 | 35182 ft | 416 kts | 216° |
| 2026-05-04 13:06 | 34.43227 | -15.40789 | 34948 ft | 416 kts | 216° |
| 2026-05-04 13:07 | 34.40763 | -15.42552 | 34711 ft | 417 kts | 216° |
| 2026-05-04 13:07 | 34.38258 | -15.44341 | 34472 ft | 418 kts | 216° |
| 2026-05-04 13:07 | 34.35747 | -15.46138 | 34231 ft | 419 kts | 216° |
| 2026-05-04 13:07 | 34.33231 | -15.47940 | 33968 ft | 420 kts | 216° |
| 2026-05-04 13:08 | 34.30707 | -15.49745 | 33705 ft | 421 kts | 216° |
| 2026-05-04 13:08 | 34.28183 | -15.51548 | 33435 ft | 422 kts | 216° |
| 2026-05-04 13:08 | 34.25651 | -15.53353 | 33175 ft | 423 kts | 216° |
| 2026-05-04 13:08 | 34.23107 | -15.55160 | 32870 ft | 423 kts | 215° |
| 2026-05-04 13:09 | 34.20566 | -15.56963 | 32608 ft | 424 kts | 215° |
| 2026-05-04 13:09 | 34.18016 | -15.58774 | 32353 ft | 425 kts | 215° |
| 2026-05-04 13:09 | 34.15495 | -15.60565 | 31619 ft | 428 kts | 215° |
| 2026-05-04 13:09 | 34.12933 | -15.62388 | 31148 ft | 421 kts | 215° |
| 2026-05-04 13:10 | 34.10456 | -15.64140 | 31023 ft | 403 kts | 215° |
| 2026-05-04 13:10 | 34.08098 | -15.65801 | 30890 ft | 384 kts | 215° |
| 2026-05-04 13:10 | 34.05833 | -15.67401 | 30700 ft | 373 kts | 216° |
| 2026-05-04 13:10 | 34.03610 | -15.68975 | 30344 ft | 368 kts | 216° |
| 2026-05-04 13:11 | 34.01412 | -15.70533 | 29877 ft | 364 kts | 216° |
| 2026-05-04 13:11 | 33.99234 | -15.72076 | 29383 ft | 362 kts | 216° |
| 2026-05-04 13:11 | 33.97071 | -15.73610 | 28876 ft | 359 kts | 216° |
| 2026-05-04 13:11 | 33.94916 | -15.75139 | 28341 ft | 358 kts | 215° |
| 2026-05-04 13:12 | 33.92769 | -15.76660 | 27816 ft | 357 kts | 214° |
| 2026-05-04 13:12 | 33.90657 | -15.78153 | 27340 ft | 355 kts | 214° |
| 2026-05-04 13:12 | 33.88530 | -15.79658 | 26869 ft | 353 kts | 214° |
| 2026-05-04 13:12 | 33.86412 | -15.81154 | 26411 ft | 351 kts | 214° |
| 2026-05-04 13:13 | 33.84308 | -15.82638 | 25959 ft | 349 kts | 214° |
| 2026-05-04 13:13 | 33.82215 | -15.84110 | 25511 ft | 347 kts | 214° |
| 2026-05-04 13:13 | 33.80134 | -15.85572 | 25062 ft | 345 kts | 214° |
| 2026-05-04 13:13 | 33.78062 | -15.87028 | 24622 ft | 343 kts | 214° |
| 2026-05-04 13:14 | 33.76002 | -15.88476 | 24187 ft | 341 kts | 214° |
| 2026-05-04 13:14 | 33.73979 | -15.89896 | 23767 ft | 340 kts | 214° |
| 2026-05-04 13:14 | 33.71946 | -15.91323 | 23268 ft | 338 kts | 214° |
| 2026-05-04 13:14 | 33.69918 | -15.92746 | 22728 ft | 335 kts | 214° |
| 2026-05-04 13:15 | 33.67907 | -15.94158 | 22158 ft | 334 kts | 214° |
| 2026-05-04 13:15 | 33.65911 | -15.95571 | 21695 ft | 331 kts | 214° |
| 2026-05-04 13:15 | 33.63955 | -15.97028 | 21229 ft | 329 kts | 216° |
| 2026-05-04 13:15 | 33.62035 | -15.98509 | 20797 ft | 327 kts | 216° |
| 2026-05-04 13:16 | 33.60130 | -15.99995 | 20361 ft | 326 kts | 216° |
| 2026-05-04 13:16 | 33.58236 | -16.01472 | 19933 ft | 324 kts | 216° |
| 2026-05-04 13:16 | 33.56341 | -16.02942 | 19503 ft | 323 kts | 216° |
| 2026-05-04 13:16 | 33.54455 | -16.04398 | 19073 ft | 321 kts | 215° |
| 2026-05-04 13:17 | 33.52577 | -16.05839 | 18645 ft | 320 kts | 215° |
| 2026-05-04 13:17 | 33.50728 | -16.07255 | 18186 ft | 319 kts | 215° |
| 2026-05-04 13:17 | 33.48862 | -16.08684 | 17718 ft | 317 kts | 215° |
| 2026-05-04 13:17 | 33.47002 | -16.10105 | 17280 ft | 315 kts | 215° |
| 2026-05-04 13:18 | 33.45155 | -16.11515 | 16832 ft | 314 kts | 214° |
| 2026-05-04 13:18 | 33.43320 | -16.12915 | 16392 ft | 312 kts | 215° |
| 2026-05-04 13:18 | 33.41495 | -16.14308 | 15972 ft | 310 kts | 215° |
| 2026-05-04 13:18 | 33.39681 | -16.15695 | 15542 ft | 308 kts | 215° |
| 2026-05-04 13:19 | 33.37876 | -16.17076 | 15122 ft | 307 kts | 214° |
| 2026-05-04 13:19 | 33.36684 | -16.17986 | 14849 ft | 306 kts | 214° |
| 2026-05-04 13:19 | 33.34287 | -16.19813 | 14308 ft | 304 kts | 214° |
| 2026-05-04 13:19 | 33.32526 | -16.21152 | 13906 ft | 303 kts | 214° |
| 2026-05-04 13:20 | 33.30747 | -16.22506 | 13474 ft | 302 kts | 214° |
| 2026-05-04 13:20 | 33.28987 | -16.23844 | 12934 ft | 300 kts | 214° |
| 2026-05-04 13:20 | 33.27232 | -16.25175 | 12534 ft | 297 kts | 214° |
| 2026-05-04 13:20 | 33.26077 | -16.26049 | 12274 ft | 296 kts | 214° |
| 2026-05-04 13:21 | 33.24345 | -16.27361 | 11879 ft | 294 kts | 214° |
| 2026-05-04 13:21 | 33.22625 | -16.28667 | 11494 ft | 292 kts | 214° |
| 2026-05-04 13:21 | 33.20918 | -16.29963 | 11105 ft | 290 kts | 214° |
| 2026-05-04 13:21 | 33.19220 | -16.31252 | 10725 ft | 288 kts | 214° |
| 2026-05-04 13:22 | 33.17529 | -16.32531 | 10352 ft | 286 kts | 213° |
| 2026-05-04 13:22 | 33.15850 | -16.33801 | 9978 ft | 285 kts | 213° |
| 2026-05-04 13:22 | 33.14182 | -16.35063 | 9566 ft | 283 kts | 213° |
| 2026-05-04 13:22 | 33.12525 | -16.36318 | 9165 ft | 281 kts | 213° |
| 2026-05-04 13:23 | 33.10878 | -16.37564 | 8752 ft | 280 kts | 213° |
| 2026-05-04 13:23 | 33.09241 | -16.38805 | 8370 ft | 278 kts | 213° |
| 2026-05-04 13:23 | 33.07612 | -16.40039 | 8052 ft | 274 kts | 213° |
| 2026-05-04 13:23 | 33.06036 | -16.41231 | 7930 ft | 263 kts | 213° |
| 2026-05-04 13:24 | 33.04528 | -16.42369 | 7809 ft | 252 kts | 213° |
| 2026-05-04 13:24 | 33.03066 | -16.43472 | 7628 ft | 244 kts | 213° |
| 2026-05-04 13:24 | 33.01659 | -16.44536 | 7345 ft | 241 kts | 213° |
| 2026-05-04 13:25 | 32.98855 | -16.46657 | 6685 ft | 237 kts | 212° |
| 2026-05-04 13:25 | 32.97450 | -16.47718 | 6512 ft | 239 kts | 212° |
| 2026-05-04 13:25 | 32.96053 | -16.48771 | 6171 ft | 236 kts | 212° |
| 2026-05-04 13:25 | 32.94677 | -16.49809 | 5816 ft | 232 kts | 212° |
| 2026-05-04 13:26 | 32.93321 | -16.50833 | 5460 ft | 229 kts | 212° |
| 2026-05-04 13:26 | 32.92079 | -16.52007 | 5109 ft | 228 kts | 221° |
| 2026-05-04 13:26 | 32.90904 | -16.53270 | 4751 ft | 227 kts | 221° |
| 2026-05-04 13:26 | 32.89732 | -16.54523 | 4394 ft | 226 kts | 221° |
| 2026-05-04 13:27 | 32.88575 | -16.55758 | 4217 ft | 220 kts | 221° |
| 2026-05-04 13:27 | 32.87482 | -16.56926 | 4150 ft | 207 kts | 221° |
| 2026-05-04 13:27 | 32.86430 | -16.58048 | 4074 ft | 201 kts | 221° |
| 2026-05-04 13:27 | 32.85389 | -16.59157 | 3984 ft | 200 kts | 221° |
| 2026-05-04 13:28 | 32.84352 | -16.60260 | 3753 ft | 199 kts | 221° |
| 2026-05-04 13:28 | 32.83322 | -16.61355 | 3461 ft | 198 kts | 221° |
| 2026-05-04 13:28 | 32.82308 | -16.62435 | 3181 ft | 193 kts | 221° |
| 2026-05-04 13:28 | 32.81327 | -16.63481 | 2914 ft | 185 kts | 221° |
| 2026-05-04 13:29 | 32.80374 | -16.64497 | 2678 ft | 182 kts | 220° |
| 2026-05-04 13:29 | 32.79433 | -16.65499 | 2470 ft | 181 kts | 220° |
| 2026-05-04 13:29 | 32.78499 | -16.66496 | 2257 ft | 181 kts | 220° |
| 2026-05-04 13:29 | 32.77572 | -16.67487 | 2041 ft | 174 kts | 220° |
| 2026-05-04 13:30 | 32.76717 | -16.68400 | 1864 ft | 163 kts | 221° |
| 2026-05-04 13:30 | 32.75881 | -16.69292 | 1668 ft | 161 kts | 221° |
| 2026-05-04 13:30 | 32.75057 | -16.70171 | 1463 ft | 158 kts | 221° |
| 2026-05-04 13:30 | 32.74276 | -16.71105 | 1318 ft | 160 kts | 226° |
| 2026-05-04 13:31 | 32.73560 | -16.72118 | 1310 ft | 160 kts | 230° |
| 2026-05-04 13:31 | 32.72892 | -16.73192 | 1119 ft | 161 kts | 232° |
| 2026-05-04 13:31 | 32.72259 | -16.74258 | 846 ft | 153 kts | 233° |
| 2026-05-04 13:31 | 32.71623 | -16.75242 | 527 ft | 147 kts | 226° |
| 2026-05-04 13:32 | 32.70925 | -16.76115 | 335 ft | 146 kts | 221° |
| 2026-05-04 13:32 | 32.70217 | -16.76967 | 206 ft | 142 kts | 222° |
| 2026-05-04 13:32 | 32.69607 | -16.77655 | 176 ft | 85 kts | 225° |
| 2026-05-04 13:32 | 32.69379 | -16.77922 | 176 ft | 24 kts | 224° |
| 2026-05-04 13:33 | 32.69298 | -16.77944 | 176 ft | 13 kts | 133° |
| 2026-05-04 13:33 | 32.69299 | -16.77847 | 169 ft | 12 kts | 60° |
| 2026-05-04 13:33 | 32.69323 | -16.77798 | 169 ft | 0 kts | 105° |
| 2026-05-04 13:33 | 32.69322 | -16.77795 | 169 ft | 0 kts | 107° |
| 2026-05-04 13:34 | 32.69326 | -16.77791 | 169 ft | 2 kts | 61° |
| 2026-05-04 13:34 | 32.69333 | -16.77757 | 169 ft | 4 kts | 131° |
| 2026-05-04 13:34 | 32.69315 | -16.77735 | 169 ft | 0 kts | 136° |
| 2026-05-04 13:34 | 32.69310 | -16.77729 | 169 ft | 0 kts | 136° |